Sioux Lookout, Canada
Current Conditions -  °F | °C
As of 10:00 AM on Saturday 25 Oct 2014 (Local Time) from CYXL Reporting Station
Broken Clouds Broken Clouds  
Wind Chill: 37°   Ceiling: 3100
Heat Index: 45°   Visibility: 15mi
Dew Point: 34°   Wind: 16mph
Humidity: 66%   Direction: 300°WNW
Pressure: 29.72"   Gusts: 29mph
Location:  50.1°N, 91.92°W
Report Text: CYXL 251500Z 30014G25KT 15SM BKN031 07/01 A2972 RMK SC7 SLP075
Loading
Personal Weather Stations






























Interactive Weather Map
Tropical Storm Tracking
New forecast layout! Learn more

10-Day Weather Forecast

Advertisements
Track Severe Weather on mobile